createdAt,value
2023-01-04T00:01:01.181Z,18.87
2023-01-04T00:03:28.057Z,18.84
2023-01-04T00:05:57.493Z,18.86
2023-01-04T00:08:24.302Z,18.85
2023-01-04T00:10:51.061Z,18.84
2023-01-04T00:13:19.013Z,18.84
2023-01-04T00:15:45.812Z,18.83
2023-01-04T00:18:14.297Z,18.82
2023-01-04T00:20:41.114Z,18.82
2023-01-04T00:23:07.822Z,18.81
2023-01-04T00:25:34.583Z,18.82
2023-01-04T00:28:01.302Z,18.79
2023-01-04T00:30:27.978Z,18.79
2023-01-04T00:32:54.671Z,18.78
2023-01-04T00:35:44.158Z,18.79
2023-01-04T00:38:08.045Z,18.77
2023-01-04T00:40:34.772Z,18.76
2023-01-04T00:43:01.609Z,18.76
2023-01-04T00:45:28.278Z,18.77
2023-01-04T00:47:54.953Z,18.74
2023-01-04T00:50:21.730Z,18.73
2023-01-04T00:52:49.954Z,18.72
2023-01-04T00:55:16.742Z,18.71
2023-01-04T00:57:43.460Z,18.72
2023-01-04T01:00:10.997Z,18.71
2023-01-04T01:02:37.771Z,18.70
2023-01-04T01:05:05.010Z,18.70
2023-01-04T01:07:31.651Z,18.70
2023-01-04T01:09:58.325Z,18.69
2023-01-04T01:12:24.985Z,18.66
2023-01-04T01:14:57.199Z,18.66
2023-01-04T01:17:26.942Z,18.65
2023-01-04T01:19:53.640Z,18.65
2023-01-04T01:22:20.350Z,18.64
2023-01-04T01:24:47.052Z,18.64
2023-01-04T01:27:13.797Z,18.62
2023-01-04T01:29:40.590Z,18.62
2023-01-04T01:32:07.300Z,18.62
2023-01-04T01:34:34.024Z,18.61
2023-01-04T01:37:00.644Z,18.59
2023-01-04T01:39:27.540Z,18.61
2023-01-04T01:41:54.241Z,18.61
2023-01-04T01:44:42.595Z,18.58
2023-01-04T01:47:37.160Z,18.57
2023-01-04T01:50:05.940Z,18.56
2023-01-04T01:52:37.336Z,18.56
2023-01-04T01:55:09.303Z,18.54
2023-01-04T01:57:38.804Z,18.53
2023-01-04T02:00:13.366Z,18.53
2023-01-04T02:03:15.440Z,18.53
2023-01-04T02:05:44.045Z,18.50
2023-01-04T02:08:12.855Z,18.51
2023-01-04T02:10:39.540Z,18.50
2023-01-04T02:13:10.251Z,18.51
2023-01-04T02:16:00.655Z,18.49
2023-01-04T02:18:33.610Z,18.48
2023-01-04T02:21:13.572Z,18.47
2023-01-04T02:23:55.421Z,18.44
2023-01-04T02:26:43.627Z,18.46
2023-01-04T02:29:34.973Z,18.46
2023-01-04T02:32:06.427Z,18.43
2023-01-04T02:34:41.403Z,18.43
2023-01-04T02:37:42.880Z,18.41
2023-01-04T02:40:16.144Z,18.42
2023-01-04T02:43:23.662Z,18.39
2023-01-04T02:45:59.824Z,18.39
2023-01-04T02:48:54.322Z,18.39
2023-01-04T02:51:35.994Z,18.37
2023-01-04T02:54:10.612Z,18.38
2023-01-04T02:57:06.159Z,18.36
2023-01-04T03:00:00.916Z,18.38
2023-01-04T03:03:18.490Z,18.35
2023-01-04T03:06:17.473Z,18.34
2023-01-04T03:09:05.708Z,18.33
2023-01-04T03:12:11.287Z,18.32
2023-01-04T03:14:53.820Z,18.29
2023-01-04T03:17:24.118Z,18.30
2023-01-04T03:19:56.515Z,18.30
2023-01-04T03:22:52.719Z,18.27
2023-01-04T03:25:44.276Z,18.27
2023-01-04T03:28:33.126Z,18.24
2023-01-04T03:31:27.045Z,18.23
2023-01-04T03:34:12.632Z,18.24
2023-01-04T03:36:54.167Z,18.22
2023-01-04T03:39:57.917Z,18.22
2023-01-04T03:42:55.564Z,18.22
2023-01-04T03:45:51.175Z,18.19
2023-01-04T03:48:34.605Z,18.18
2023-01-04T03:51:10.380Z,18.17
2023-01-04T03:54:07.916Z,18.17
2023-01-04T03:56:37.675Z,18.17
2023-01-04T03:59:05.064Z,18.17
2023-01-04T04:01:32.050Z,18.15
2023-01-04T04:04:17.767Z,18.14
2023-01-04T04:07:02.940Z,18.13
2023-01-04T04:09:29.633Z,18.13
2023-01-04T04:11:56.318Z,18.12
2023-01-04T04:14:22.990Z,18.12
2023-01-04T04:16:49.964Z,18.11
2023-01-04T04:19:16.712Z,18.09
2023-01-04T04:21:43.371Z,18.10
2023-01-04T04:24:24.774Z,18.10
2023-01-04T04:26:54.480Z,18.08
2023-01-04T04:29:21.998Z,18.07
2023-01-04T04:31:48.821Z,18.07
2023-01-04T04:34:15.857Z,18.07
2023-01-04T04:36:42.543Z,18.06
2023-01-04T04:39:09.423Z,18.05
2023-01-04T04:41:38.911Z,18.05
2023-01-04T04:44:10.441Z,18.04
2023-01-04T04:46:37.606Z,18.03
2023-01-04T04:49:04.975Z,18.02
2023-01-04T04:51:31.927Z,18.02
2023-01-04T04:53:58.665Z,18.00
2023-01-04T04:56:25.371Z,18.00
2023-01-04T04:58:52.235Z,18.00
2023-01-04T05:01:19.602Z,18.02
2023-01-04T05:03:46.562Z,18.02
2023-01-04T05:06:13.701Z,17.99
2023-01-04T05:08:40.718Z,17.97
2023-01-04T05:11:09.203Z,17.97
2023-01-04T05:13:36.246Z,17.96
2023-01-04T05:16:04.684Z,17.97
2023-01-04T05:18:31.512Z,17.96
2023-01-04T05:20:58.449Z,17.94
2023-01-04T05:23:25.485Z,17.95
2023-01-04T05:25:56.741Z,17.93
2023-01-04T05:28:23.403Z,17.92
2023-01-04T05:30:51.515Z,17.92
2023-01-04T05:33:20.301Z,17.92
2023-01-04T05:35:48.063Z,17.92
2023-01-04T05:38:15.373Z,17.91
2023-01-04T05:40:42.847Z,17.90
2023-01-04T05:43:09.942Z,17.89
2023-01-04T05:45:37.088Z,17.88
2023-01-04T05:48:03.915Z,17.89
2023-01-04T05:50:30.585Z,17.87
2023-01-04T05:53:04.912Z,17.87
2023-01-04T05:55:31.653Z,17.87
2023-01-04T05:57:58.557Z,17.85
2023-01-04T06:00:25.263Z,17.85
2023-01-04T06:02:55.646Z,17.83
2023-01-04T06:05:23.657Z,17.83
2023-01-04T06:07:50.912Z,17.83
2023-01-04T06:10:18.031Z,17.82
2023-01-04T06:12:46.552Z,17.82
2023-01-04T06:15:13.785Z,17.81
2023-01-04T06:17:40.604Z,17.81
2023-01-04T06:20:12.446Z,17.80
2023-01-04T06:22:40.684Z,17.80
2023-01-04T06:25:09.410Z,17.80
2023-01-04T06:27:36.230Z,17.80
2023-01-04T06:30:03.666Z,17.78
2023-01-04T06:32:30.319Z,17.79
2023-01-04T06:34:57.110Z,17.78
2023-01-04T06:37:23.887Z,17.78
2023-01-04T06:39:50.660Z,17.77
2023-01-04T06:42:35.956Z,17.77
2023-01-04T06:45:02.886Z,17.76
2023-01-04T06:47:29.632Z,17.74
2023-01-04T06:49:56.289Z,17.74
2023-01-04T06:52:23.001Z,17.73
2023-01-04T06:54:49.695Z,17.74
2023-01-04T06:57:16.447Z,17.72
2023-01-04T06:59:43.205Z,17.70
2023-01-04T07:02:15.020Z,17.72
2023-01-04T07:04:42.994Z,17.70
2023-01-04T07:07:09.803Z,17.70
2023-01-04T07:09:36.575Z,17.70
2023-01-04T07:12:03.464Z,17.69
2023-01-04T07:14:30.112Z,17.68
2023-01-04T07:16:56.904Z,17.69
2023-01-04T07:19:23.550Z,17.69
2023-01-04T07:21:50.279Z,17.66
2023-01-04T07:24:16.992Z,17.68
2023-01-04T07:26:43.696Z,17.67
2023-01-04T07:29:17.305Z,17.66
2023-01-04T07:31:47.589Z,17.67
2023-01-04T07:34:18.214Z,17.66
2023-01-04T07:36:46.262Z,17.66
2023-01-04T07:39:13.464Z,17.66
2023-01-04T07:41:40.998Z,17.64
2023-01-04T07:44:09.842Z,17.64
2023-01-04T07:46:36.840Z,17.65
2023-01-04T07:49:03.916Z,17.63
2023-01-04T07:51:32.195Z,17.64
2023-01-04T07:53:59.656Z,17.63
2023-01-04T07:56:26.357Z,17.62
2023-01-04T07:58:57.141Z,17.61
2023-01-04T08:01:25.312Z,17.62
2023-01-04T08:03:52.954Z,17.63
2023-01-04T08:06:21.461Z,17.62
2023-01-04T08:08:48.356Z,17.61
2023-01-04T08:11:17.437Z,17.59
2023-01-04T08:13:44.237Z,17.60
2023-01-04T08:16:21.231Z,17.58
2023-01-04T08:18:48.980Z,17.58
2023-01-04T08:21:15.772Z,17.59
2023-01-04T08:23:42.540Z,17.59
2023-01-04T08:26:12.339Z,17.59
2023-01-04T08:28:39.110Z,17.56
2023-01-04T08:31:12.050Z,17.59
2023-01-04T08:33:39.612Z,17.58
2023-01-04T08:36:27.999Z,17.58
2023-01-04T08:39:00.544Z,17.58
2023-01-04T08:44:16.892Z,17.56
2023-01-04T08:46:43.680Z,17.58
2023-01-04T08:49:10.541Z,17.54
2023-01-04T08:51:37.262Z,16.99
2023-01-04T08:54:04.115Z,17.09
2023-01-04T08:56:30.742Z,17.24
2023-01-04T08:58:57.421Z,17.33
2023-01-04T09:01:24.272Z,17.38
2023-01-04T09:03:50.973Z,17.40
2023-01-04T09:06:17.969Z,17.41
2023-01-04T09:08:44.662Z,17.43
2023-01-04T09:11:16.818Z,17.44
2023-01-04T09:13:44.155Z,17.45
2023-01-04T09:16:14.146Z,17.45
2023-01-04T09:18:41.183Z,17.46
2023-01-04T09:21:10.289Z,17.45
2023-01-04T09:23:37.882Z,17.46
2023-01-04T09:26:09.936Z,17.46
2023-01-04T09:28:37.225Z,17.47
2023-01-04T09:31:18.432Z,17.46
2023-01-04T09:34:13.353Z,17.46
2023-01-04T09:36:32.114Z,17.49
2023-01-04T09:38:58.781Z,17.47
2023-01-04T09:41:29.387Z,17.49
2023-01-04T09:44:01.085Z,17.48
2023-01-04T09:46:42.644Z,17.48
2023-01-04T09:49:14.942Z,17.48
2023-01-04T09:51:48.515Z,17.52
2023-01-04T09:54:20.782Z,17.56
2023-01-04T09:56:56.040Z,17.55
2023-01-04T09:59:31.676Z,17.55
2023-01-04T10:02:13.258Z,17.55
2023-01-04T10:04:46.149Z,17.62
2023-01-04T10:07:25.045Z,17.64
2023-01-04T10:09:51.976Z,17.62
2023-01-04T10:12:33.983Z,17.61
2023-01-04T10:15:22.639Z,17.63
2023-01-04T10:21:32.821Z,17.63
2023-01-04T10:24:38.238Z,17.63
2023-01-04T10:27:25.296Z,17.67
2023-01-04T10:30:07.312Z,17.68
2023-01-04T10:32:45.541Z,17.66
2023-01-04T10:35:24.563Z,17.66
2023-01-04T10:38:10.421Z,17.66
2023-01-04T10:40:40.021Z,17.67
2023-01-04T10:43:17.088Z,17.68
2023-01-04T10:45:51.889Z,17.68
2023-01-04T10:48:35.972Z,17.67
2023-01-04T10:51:10.190Z,17.68
2023-01-04T10:53:53.343Z,17.70
2023-01-04T10:56:40.359Z,17.69
2023-01-04T10:59:25.715Z,17.70
2023-01-04T11:02:02.349Z,17.72
2023-01-04T11:04:37.409Z,17.74
2023-01-04T11:07:16.713Z,17.74
2023-01-04T11:09:55.834Z,17.79
2023-01-04T11:12:23.507Z,17.49
2023-01-04T11:14:51.596Z,17.33
2023-01-04T11:17:20.810Z,17.20
2023-01-04T11:19:48.032Z,17.09
2023-01-04T11:22:21.446Z,17.22
2023-01-04T11:25:33.153Z,17.04
2023-01-04T11:27:49.711Z,17.06
2023-01-04T11:30:21.589Z,17.21
2023-01-04T11:33:09.090Z,17.35
2023-01-04T11:35:58.932Z,17.39
2023-01-04T11:38:30.618Z,17.40
2023-01-04T11:41:06.049Z,17.43
2023-01-04T11:43:39.601Z,17.43
2023-01-04T11:46:17.020Z,17.45
2023-01-04T11:48:45.929Z,17.48
2023-01-04T11:51:27.466Z,17.54
2023-01-04T11:54:20.252Z,17.59
2023-01-04T11:57:20.608Z,17.61
2023-01-04T12:00:14.668Z,17.65
2023-01-04T12:03:00.751Z,17.73
2023-01-04T12:05:32.185Z,17.78
2023-01-04T12:07:59.556Z,17.85
2023-01-04T12:10:28.232Z,17.93
2023-01-04T12:12:56.376Z,18.09
2023-01-04T12:15:55.284Z,18.30
2023-01-04T12:18:37.362Z,18.38
2023-01-04T12:21:04.281Z,18.72
2023-01-04T12:23:32.675Z,18.95
2023-01-04T12:26:00.012Z,19.89
2023-01-04T12:28:35.312Z,20.05
2023-01-04T12:31:21.263Z,22.12
2023-01-04T12:33:55.263Z,23.51
2023-01-04T12:36:43.037Z,24.21
2023-01-04T12:39:13.307Z,24.35
2023-01-04T12:41:39.908Z,24.49
2023-01-04T12:44:38.771Z,22.07
2023-01-04T12:47:39.214Z,19.83
2023-01-04T12:50:19.624Z,19.50
2023-01-04T12:55:44.905Z,19.39
2023-01-04T12:58:58.021Z,19.38
2023-01-04T13:01:28.195Z,19.40
2023-01-04T13:04:05.760Z,19.37
2023-01-04T13:06:40.547Z,19.33
2023-01-04T13:09:23.694Z,19.35
2023-01-04T13:12:08.327Z,19.35
2023-01-04T13:14:49.885Z,19.33
2023-01-04T13:17:25.517Z,19.32
2023-01-04T13:19:52.268Z,19.31
2023-01-04T13:22:28.580Z,19.32
2023-01-04T13:24:57.720Z,19.31
2023-01-04T13:27:25.275Z,19.30
2023-01-04T13:29:52.742Z,19.36
2023-01-04T13:32:26.555Z,19.35
2023-01-04T13:35:25.522Z,19.33
2023-01-04T13:37:52.612Z,19.36
2023-01-04T13:40:24.167Z,19.27
2023-01-04T13:42:59.721Z,19.20
2023-01-04T13:45:47.543Z,19.27
2023-01-04T13:48:19.419Z,19.29
2023-01-04T13:51:02.949Z,19.32
2023-01-04T13:53:30.750Z,19.31
2023-01-04T13:56:02.422Z,19.32
2023-01-04T13:58:31.404Z,19.32
2023-01-04T14:01:03.140Z,19.33
2023-01-04T14:03:37.471Z,19.32
2023-01-04T14:06:32.637Z,19.31
2023-01-04T14:09:11.303Z,19.22
2023-01-04T14:12:07.675Z,19.21
2023-01-04T14:15:01.001Z,19.24
2023-01-04T14:17:31.769Z,19.24
2023-01-04T14:20:06.039Z,19.24
2023-01-04T14:22:32.716Z,19.22
2023-01-04T14:25:09.797Z,19.18
2023-01-04T14:27:45.148Z,19.10
2023-01-04T14:30:17.716Z,19.01
2023-01-04T14:33:42.914Z,18.98
2023-01-04T14:36:09.766Z,18.95
2023-01-04T14:38:42.123Z,18.93
2023-01-04T14:41:30.427Z,18.89
2023-01-04T14:43:59.880Z,18.87
2023-01-04T14:46:29.123Z,18.86
2023-01-04T14:48:56.375Z,18.82
2023-01-04T14:51:29.357Z,18.79
2023-01-04T14:53:56.058Z,18.77
2023-01-04T14:56:22.716Z,18.77
2023-01-04T14:58:49.441Z,18.76
2023-01-04T15:01:16.315Z,18.74
2023-01-04T15:03:43.119Z,18.69
2023-01-04T15:06:10.592Z,18.69
2023-01-04T15:08:37.235Z,18.66
2023-01-04T15:11:03.934Z,18.66
2023-01-04T15:13:38.762Z,18.65
2023-01-04T15:16:07.612Z,18.63
2023-01-04T15:18:34.461Z,18.59
2023-01-04T15:21:02.778Z,18.57
2023-01-04T15:23:29.537Z,18.54
2023-01-04T15:25:56.443Z,18.49
2023-01-04T15:28:25.940Z,18.48
2023-01-04T15:30:52.661Z,18.47
2023-01-04T15:33:19.587Z,18.44
2023-01-04T15:35:46.994Z,18.44
2023-01-04T15:38:18.386Z,18.42
2023-01-04T15:40:45.470Z,18.39
2023-01-04T15:43:12.146Z,18.39
2023-01-04T15:45:39.664Z,18.39
2023-01-04T15:48:08.299Z,18.35
2023-01-04T15:50:37.899Z,18.34
2023-01-04T15:53:06.339Z,18.32
2023-01-04T15:55:36.758Z,18.29
2023-01-04T15:58:07.428Z,18.25
2023-01-04T16:00:34.728Z,18.24
2023-01-04T16:03:01.491Z,18.22
2023-01-04T16:05:28.200Z,18.20
2023-01-04T16:07:54.874Z,18.20
2023-01-04T16:10:21.622Z,18.17
2023-01-04T16:12:54.749Z,18.15
2023-01-04T16:15:24.130Z,18.14
2023-01-04T16:17:51.036Z,18.12
2023-01-04T16:20:18.977Z,18.10
2023-01-04T16:22:45.953Z,18.08
2023-01-04T16:25:13.266Z,18.10
2023-01-04T16:27:40.531Z,18.09
2023-01-04T16:30:11.082Z,18.11
2023-01-04T16:32:41.564Z,18.09
2023-01-04T16:35:08.948Z,18.07
2023-01-04T16:37:35.688Z,18.09
2023-01-04T16:40:07.336Z,18.09
2023-01-04T16:42:35.820Z,18.08
2023-01-04T16:45:02.494Z,18.05
2023-01-04T16:47:29.174Z,18.02
2023-01-04T16:49:55.924Z,18.02
2023-01-04T16:52:26.711Z,17.99
2023-01-04T16:54:53.511Z,17.98
2023-01-04T16:57:20.266Z,17.95
2023-01-04T16:59:47.699Z,17.97
2023-01-04T17:02:14.796Z,17.95
2023-01-04T17:04:41.657Z,17.92
2023-01-04T17:07:08.331Z,17.92
2023-01-04T17:09:35.002Z,17.89
2023-01-04T17:12:45.113Z,17.89
2023-01-04T17:15:08.054Z,17.87
2023-01-04T17:17:37.752Z,17.87
2023-01-04T17:20:06.379Z,17.87
2023-01-04T17:22:34.884Z,17.90
2023-01-04T17:25:01.945Z,17.90
2023-01-04T17:27:28.667Z,17.92
2023-01-04T17:29:55.339Z,17.90
2023-01-04T17:32:22.024Z,17.91
2023-01-04T17:34:51.911Z,17.91
2023-01-04T17:37:18.657Z,17.91
2023-01-04T17:39:45.383Z,17.88
2023-01-04T17:42:12.074Z,17.89
2023-01-04T17:44:39.421Z,17.88
2023-01-04T17:47:06.204Z,17.84
2023-01-04T17:49:32.894Z,17.85
2023-01-04T17:51:59.914Z,17.82
2023-01-04T17:54:27.080Z,17.82
2023-01-04T17:56:54.102Z,17.82
2023-01-04T17:59:20.787Z,17.79
2023-01-04T18:01:47.457Z,17.81
2023-01-04T18:04:14.510Z,17.79
2023-01-04T18:06:41.173Z,17.79
2023-01-04T18:09:09.296Z,17.78
2023-01-04T18:11:36.649Z,17.78
2023-01-04T18:14:06.399Z,17.78
2023-01-04T18:16:56.550Z,17.77
2023-01-04T18:19:30.004Z,17.78
2023-01-04T18:21:57.772Z,17.78
2023-01-04T18:24:35.972Z,17.78
2023-01-04T18:27:22.773Z,17.79
2023-01-04T18:29:51.844Z,17.78
2023-01-04T18:32:18.883Z,17.78
2023-01-04T18:34:45.609Z,17.80
2023-01-04T18:37:12.340Z,17.78
2023-01-04T18:39:39.002Z,17.77
2023-01-04T18:42:05.789Z,17.78
2023-01-04T18:44:34.554Z,17.75
2023-01-04T18:47:02.746Z,17.77
2023-01-04T18:49:30.954Z,17.74
2023-01-04T18:51:57.629Z,17.74
2023-01-04T18:54:24.530Z,17.72
2023-01-04T18:56:56.992Z,17.73
2023-01-04T18:59:30.693Z,17.72
2023-01-04T19:02:01.224Z,17.72
2023-01-04T19:04:30.498Z,17.72
2023-01-04T19:06:57.303Z,17.70
2023-01-04T19:09:24.175Z,17.72
2023-01-04T19:11:51.227Z,17.70
2023-01-04T19:14:18.112Z,17.70
2023-01-04T19:16:45.228Z,17.69
2023-01-04T19:19:11.954Z,17.72
2023-01-04T19:21:38.722Z,17.69
2023-01-04T19:24:05.556Z,17.69
2023-01-04T19:26:32.278Z,17.69
2023-01-04T19:28:59.049Z,17.70
2023-01-04T19:31:25.809Z,17.69
2023-01-04T19:33:52.516Z,17.68
2023-01-04T19:36:19.733Z,17.69
2023-01-04T19:38:46.560Z,17.67
2023-01-04T19:41:21.019Z,17.67
2023-01-04T19:43:48.040Z,17.65
2023-01-04T19:46:15.618Z,17.65
2023-01-04T19:48:43.122Z,17.66
2023-01-04T19:51:15.266Z,17.65
2023-01-04T19:53:44.219Z,17.65
2023-01-04T19:56:12.052Z,17.64
2023-01-04T19:58:38.812Z,17.65
2023-01-04T20:01:06.712Z,17.65
2023-01-04T20:03:33.798Z,17.65
2023-01-04T20:06:04.981Z,17.66
2023-01-04T20:08:32.693Z,17.65
2023-01-04T20:11:01.354Z,17.63
2023-01-04T20:13:28.985Z,17.63
2023-01-04T20:15:56.267Z,17.63
2023-01-04T20:18:26.621Z,17.64
2023-01-04T20:20:53.573Z,17.63
2023-01-04T20:23:21.573Z,17.64
2023-01-04T20:25:51.154Z,17.63
2023-01-04T20:28:19.948Z,17.62
2023-01-04T20:30:47.602Z,17.62
2023-01-04T20:33:14.984Z,17.61
2023-01-04T20:35:43.790Z,17.62
2023-01-04T20:38:11.779Z,17.62
2023-01-04T20:40:39.786Z,17.61
2023-01-04T20:43:25.393Z,17.61
2023-01-04T20:45:52.161Z,17.62
2023-01-04T20:48:18.954Z,17.63
2023-01-04T20:50:45.665Z,17.61
2023-01-04T20:53:13.549Z,17.60
2023-01-04T20:55:42.523Z,17.59
2023-01-04T20:58:13.803Z,17.59
2023-01-04T21:00:41.491Z,17.59
2023-01-04T21:03:10.986Z,17.59
2023-01-04T21:05:43.254Z,17.58
2023-01-04T21:08:11.232Z,17.59
2023-01-04T21:10:41.932Z,17.56
2023-01-04T21:13:10.582Z,17.56
2023-01-04T21:15:39.547Z,17.70
2023-01-04T21:18:07.431Z,17.80
2023-01-04T21:20:34.157Z,17.79
2023-01-04T21:23:00.874Z,17.77
2023-01-04T21:25:27.546Z,17.76
2023-01-04T21:27:54.415Z,17.75
2023-01-04T21:30:21.219Z,17.75
2023-01-04T21:32:47.881Z,17.76
2023-01-04T21:35:14.623Z,17.77
2023-01-04T21:37:41.337Z,17.77
2023-01-04T21:40:08.831Z,17.77
2023-01-04T21:42:35.716Z,17.76
2023-01-04T21:45:02.350Z,17.77
2023-01-04T21:47:32.922Z,17.76
2023-01-04T21:49:59.715Z,17.77
2023-01-04T21:52:26.428Z,17.78
2023-01-04T21:54:53.267Z,17.77
2023-01-04T21:57:19.910Z,17.78
2023-01-04T21:59:46.838Z,17.78
2023-01-04T22:02:17.655Z,17.77
2023-01-04T22:04:44.876Z,17.76
2023-01-04T22:07:11.901Z,17.77
2023-01-04T22:09:38.749Z,17.76
2023-01-04T22:12:06.066Z,17.76
2023-01-04T22:14:33.643Z,17.76
2023-01-04T22:17:00.717Z,17.75
2023-01-04T22:19:27.479Z,17.76
2023-01-04T22:21:54.361Z,17.76
2023-01-04T22:24:21.146Z,17.77
2023-01-04T22:26:49.307Z,17.76
2023-01-04T22:29:16.478Z,17.75
2023-01-04T22:31:43.231Z,17.75
2023-01-04T22:34:09.924Z,17.75
2023-01-04T22:36:36.636Z,17.74
2023-01-04T22:39:03.665Z,17.75
2023-01-04T22:41:30.516Z,17.76
2023-01-04T22:43:59.544Z,17.75
2023-01-04T22:46:28.120Z,17.74
2023-01-04T22:48:55.321Z,17.75
2023-01-04T22:51:23.697Z,17.75
2023-01-04T22:53:54.880Z,17.75
2023-01-04T22:56:22.752Z,17.74
2023-01-04T22:58:54.192Z,17.73
2023-01-04T23:01:24.242Z,17.70
2023-01-04T23:03:51.987Z,17.72
2023-01-04T23:06:19.891Z,17.69
2023-01-04T23:08:46.576Z,17.69
2023-01-04T23:11:18.616Z,17.68
2023-01-04T23:13:45.984Z,17.67
2023-01-04T23:16:16.534Z,17.67
2023-01-04T23:18:43.960Z,17.68
2023-01-04T23:21:11.727Z,17.68
2023-01-04T23:23:38.673Z,17.67
2023-01-04T23:26:08.231Z,17.67
2023-01-04T23:28:37.994Z,17.66
2023-01-04T23:31:07.334Z,17.64
2023-01-04T23:33:36.777Z,17.64
2023-01-04T23:36:18.806Z,17.65
2023-01-04T23:38:50.895Z,17.64
2023-01-04T23:41:17.718Z,17.64
2023-01-04T23:43:44.413Z,17.64
2023-01-04T23:46:17.915Z,17.64
2023-01-04T23:48:44.944Z,17.63
2023-01-04T23:51:14.966Z,17.63
2023-01-04T23:53:41.823Z,17.63
2023-01-04T23:56:15.081Z,17.63
2023-01-04T23:58:42.076Z,17.63
